sensor_id;sensor_type;location;lat;lon;timestamp;P1;P2;P0
31330;PMS5003;34067;39.548;-76.088;2022-09-30T00:00:56;3;3;
31330;PMS5003;34067;39.548;-76.088;2022-09-30T00:03:24;1;1;
31330;PMS5003;34067;39.548;-76.088;2022-09-30T00:05:56;2;2;
31330;PMS5003;34067;39.548;-76.088;2022-09-30T00:08:25;2;2;
31330;PMS5003;34067;39.548;-76.088;2022-09-30T00:11:00;2;2;
31330;PMS5003;34067;39.548;-76.088;2022-09-30T00:13:31;1;1;
31330;PMS5003;34067;39.548;-76.088;2022-09-30T00:16:00;2;2;
31330;PMS5003;34067;39.548;-76.088;2022-09-30T00:18:30;3;2;
31330;PMS5003;34067;39.548;-76.088;2022-09-30T00:20:58;2;2;
31330;PMS5003;34067;39.548;-76.088;2022-09-30T00:23:26;3;3;
31330;PMS5003;34067;39.548;-76.088;2022-09-30T00:25:56;3;2;
31330;PMS5003;34067;39.548;-76.088;2022-09-30T00:28:25;2;2;
31330;PMS5003;34067;39.548;-76.088;2022-09-30T00:30:53;3;3;
31330;PMS5003;34067;39.548;-76.088;2022-09-30T00:33:26;2;2;
31330;PMS5003;34067;39.548;-76.088;2022-09-30T00:35:54;3;3;
31330;PMS5003;34067;39.548;-76.088;2022-09-30T00:38:22;3;3;
31330;PMS5003;34067;39.548;-76.088;2022-09-30T00:40:51;1;1;
31330;PMS5003;34067;39.548;-76.088;2022-09-30T00:43:20;3;2;
31330;PMS5003;34067;39.548;-76.088;2022-09-30T00:46:04;1;1;
31330;PMS5003;34067;39.548;-76.088;2022-09-30T00:48:41;2;2;
31330;PMS5003;34067;39.548;-76.088;2022-09-30T00:51:10;4;3;
31330;PMS5003;34067;39.548;-76.088;2022-09-30T00:53:40;3;3;
31330;PMS5003;34067;39.548;-76.088;2022-09-30T00:56:15;3;3;
31330;PMS5003;34067;39.548;-76.088;2022-09-30T00:58:48;2;2;
31330;PMS5003;34067;39.548;-76.088;2022-09-30T01:01:19;2;2;
31330;PMS5003;34067;39.548;-76.088;2022-09-30T01:03:49;3;3;
31330;PMS5003;34067;39.548;-76.088;2022-09-30T01:06:20;4;3;
31330;PMS5003;34067;39.548;-76.088;2022-09-30T01:08:50;3;3;
31330;PMS5003;34067;39.548;-76.088;2022-09-30T01:11:19;4;4;
31330;PMS5003;34067;39.548;-76.088;2022-09-30T01:13:47;3;3;
31330;PMS5003;34067;39.548;-76.088;2022-09-30T01:16:23;3;3;
31330;PMS5003;34067;39.548;-76.088;2022-09-30T01:19:09;2;2;
31330;PMS5003;34067;39.548;-76.088;2022-09-30T01:21:59;3;3;
31330;PMS5003;34067;39.548;-76.088;2022-09-30T01:25:10;3;3;
31330;PMS5003;34067;39.548;-76.088;2022-09-30T01:28:04;2;2;
31330;PMS5003;34067;39.548;-76.088;2022-09-30T01:30:54;2;2;
31330;PMS5003;34067;39.548;-76.088;2022-09-30T01:33:38;5;3;
31330;PMS5003;34067;39.548;-76.088;2022-09-30T01:36:19;4;4;
31330;PMS5003;34067;39.548;-76.088;2022-09-30T01:39:00;3;2;
31330;PMS5003;34067;39.548;-76.088;2022-09-30T01:41:41;3;3;
31330;PMS5003;34067;39.548;-76.088;2022-09-30T01:44:13;2;2;
31330;PMS5003;34067;39.548;-76.088;2022-09-30T01:46:47;2;2;
31330;PMS5003;34067;39.548;-76.088;2022-09-30T01:49:22;2;2;
31330;PMS5003;34067;39.548;-76.088;2022-09-30T01:51:58;5;4;
31330;PMS5003;34067;39.548;-76.088;2022-09-30T01:54:32;2;2;
31330;PMS5003;34067;39.548;-76.088;2022-09-30T01:57:07;2;2;
31330;PMS5003;34067;39.548;-76.088;2022-09-30T01:59:48;3;3;
31330;PMS5003;34067;39.548;-76.088;2022-09-30T02:02:23;3;3;
31330;PMS5003;34067;39.548;-76.088;2022-09-30T02:04:56;4;3;
31330;PMS5003;34067;39.548;-76.088;2022-09-30T02:07:29;1;1;
31330;PMS5003;34067;39.548;-76.088;2022-09-30T02:10:04;2;2;
31330;PMS5003;34067;39.548;-76.088;2022-09-30T02:12:39;1;1;
31330;PMS5003;34067;39.548;-76.088;2022-09-30T02:15:14;3;2;
31330;PMS5003;34067;39.548;-76.088;2022-09-30T02:17:47;2;2;
31330;PMS5003;34067;39.548;-76.088;2022-09-30T02:20:19;3;2;
31330;PMS5003;34067;39.548;-76.088;2022-09-30T02:22:51;1;1;
31330;PMS5003;34067;39.548;-76.088;2022-09-30T02:25:25;2;2;
31330;PMS5003;34067;39.548;-76.088;2022-09-30T02:28:01;2;2;
31330;PMS5003;34067;39.548;-76.088;2022-09-30T02:30:33;2;2;
31330;PMS5003;34067;39.548;-76.088;2022-09-30T02:33:06;2;2;
31330;PMS5003;34067;39.548;-76.088;2022-09-30T02:35:40;2;2;
31330;PMS5003;34067;39.548;-76.088;2022-09-30T02:38:15;2;2;
31330;PMS5003;34067;39.548;-76.088;2022-09-30T02:40:49;1;1;
31330;PMS5003;34067;39.548;-76.088;2022-09-30T02:43:21;2;2;
31330;PMS5003;34067;39.548;-76.088;2022-09-30T02:45:49;3;3;
31330;PMS5003;34067;39.548;-76.088;2022-09-30T02:48:26;3;3;
31330;PMS5003;34067;39.548;-76.088;2022-09-30T02:51:01;1;1;
31330;PMS5003;34067;39.548;-76.088;2022-09-30T02:53:38;1;1;
31330;PMS5003;34067;39.548;-76.088;2022-09-30T02:56:18;2;2;
31330;PMS5003;34067;39.548;-76.088;2022-09-30T02:58:53;2;2;
31330;PMS5003;34067;39.548;-76.088;2022-09-30T03:01:23;2;2;
31330;PMS5003;34067;39.548;-76.088;2022-09-30T03:03:52;2;2;
31330;PMS5003;34067;39.548;-76.088;2022-09-30T03:06:23;2;2;
31330;PMS5003;34067;39.548;-76.088;2022-09-30T03:08:52;1;1;
31330;PMS5003;34067;39.548;-76.088;2022-09-30T03:11:20;2;2;
31330;PMS5003;34067;39.548;-76.088;2022-09-30T03:13:54;2;1;
31330;PMS5003;34067;39.548;-76.088;2022-09-30T03:16:45;2;2;
31330;PMS5003;34067;39.548;-76.088;2022-09-30T03:19:34;3;3;
31330;PMS5003;34067;39.548;-76.088;2022-09-30T03:22:18;2;2;
31330;PMS5003;34067;39.548;-76.088;2022-09-30T03:25:07;2;2;
31330;PMS5003;34067;39.548;-76.088;2022-09-30T03:27:47;1;1;
31330;PMS5003;34067;39.548;-76.088;2022-09-30T03:30:26;2;2;
31330;PMS5003;34067;39.548;-76.088;2022-09-30T03:33:02;0;0;
31330;PMS5003;34067;39.548;-76.088;2022-09-30T03:35:39;2;2;
31330;PMS5003;34067;39.548;-76.088;2022-09-30T03:38:13;3;3;
31330;PMS5003;34067;39.548;-76.088;2022-09-30T03:40:52;3;3;
31330;PMS5003;34067;39.548;-76.088;2022-09-30T03:43:31;2;2;
31330;PMS5003;34067;39.548;-76.088;2022-09-30T03:46:02;3;3;
31330;PMS5003;34067;39.548;-76.088;2022-09-30T03:48:36;3;3;
31330;PMS5003;34067;39.548;-76.088;2022-09-30T03:51:06;4;4;
31330;PMS5003;34067;39.548;-76.088;2022-09-30T03:53:37;1;1;
31330;PMS5003;34067;39.548;-76.088;2022-09-30T03:56:06;9;9;
31330;PMS5003;34067;39.548;-76.088;2022-09-30T03:58:35;6;6;
31330;PMS5003;34067;39.548;-76.088;2022-09-30T04:01:06;4;4;
31330;PMS5003;34067;39.548;-76.088;2022-09-30T04:03:36;3;3;
31330;PMS5003;34067;39.548;-76.088;2022-09-30T04:06:04;4;4;
31330;PMS5003;34067;39.548;-76.088;2022-09-30T04:08:38;20;20;
31330;PMS5003;34067;39.548;-76.088;2022-09-30T04:11:06;21;21;
31330;PMS5003;34067;39.548;-76.088;2022-09-30T04:13:35;15;15;
31330;PMS5003;34067;39.548;-76.088;2022-09-30T04:16:03;13;13;
31330;PMS5003;34067;39.548;-76.088;2022-09-30T04:18:32;13;12;
31330;PMS5003;34067;39.548;-76.088;2022-09-30T04:21:03;33;33;
31330;PMS5003;34067;39.548;-76.088;2022-09-30T04:23:33;25;24;
31330;PMS5003;34067;39.548;-76.088;2022-09-30T04:26:02;2;1;
31330;PMS5003;34067;39.548;-76.088;2022-09-30T04:28:31;2;1;
31330;PMS5003;34067;39.548;-76.088;2022-09-30T04:30:59;2;2;
31330;PMS5003;34067;39.548;-76.088;2022-09-30T04:33:28;1;1;
31330;PMS5003;34067;39.548;-76.088;2022-09-30T04:35:57;2;2;
31330;PMS5003;34067;39.548;-76.088;2022-09-30T04:38:25;2;2;
31330;PMS5003;34067;39.548;-76.088;2022-09-30T04:40:53;2;2;
31330;PMS5003;34067;39.548;-76.088;2022-09-30T04:43:22;2;2;
31330;PMS5003;34067;39.548;-76.088;2022-09-30T04:45:51;2;2;
31330;PMS5003;34067;39.548;-76.088;2022-09-30T04:48:20;2;2;
31330;PMS5003;34067;39.548;-76.088;2022-09-30T04:50:48;1;1;
31330;PMS5003;34067;39.548;-76.088;2022-09-30T04:53:18;2;2;
31330;PMS5003;34067;39.548;-76.088;2022-09-30T04:55:46;1;1;
31330;PMS5003;34067;39.548;-76.088;2022-09-30T04:58:14;2;2;
31330;PMS5003;34067;39.548;-76.088;2022-09-30T05:03:14;3;2;
31330;PMS5003;34067;39.548;-76.088;2022-09-30T05:05:43;2;2;
31330;PMS5003;34067;39.548;-76.088;2022-09-30T05:08:10;3;3;
31330;PMS5003;34067;39.548;-76.088;2022-09-30T05:10:38;4;3;
31330;PMS5003;34067;39.548;-76.088;2022-09-30T05:13:06;1;1;
31330;PMS5003;34067;39.548;-76.088;2022-09-30T05:15:35;3;2;
31330;PMS5003;34067;39.548;-76.088;2022-09-30T05:18:02;2;2;
31330;PMS5003;34067;39.548;-76.088;2022-09-30T05:20:31;2;2;
31330;PMS5003;34067;39.548;-76.088;2022-09-30T05:22:59;2;2;
31330;PMS5003;34067;39.548;-76.088;2022-09-30T05:25:27;2;2;
31330;PMS5003;34067;39.548;-76.088;2022-09-30T05:27:55;1;1;
31330;PMS5003;34067;39.548;-76.088;2022-09-30T05:30:23;2;2;
31330;PMS5003;34067;39.548;-76.088;2022-09-30T05:32:51;1;1;
31330;PMS5003;34067;39.548;-76.088;2022-09-30T05:35:19;0;0;
31330;PMS5003;34067;39.548;-76.088;2022-09-30T05:37:47;2;2;
31330;PMS5003;34067;39.548;-76.088;2022-09-30T05:40:15;1;1;
31330;PMS5003;34067;39.548;-76.088;2022-09-30T05:42:43;1;1;
31330;PMS5003;34067;39.548;-76.088;2022-09-30T05:45:11;2;2;
31330;PMS5003;34067;39.548;-76.088;2022-09-30T05:47:39;2;2;
31330;PMS5003;34067;39.548;-76.088;2022-09-30T05:50:08;3;3;
31330;PMS5003;34067;39.548;-76.088;2022-09-30T05:52:35;2;2;
31330;PMS5003;34067;39.548;-76.088;2022-09-30T05:55:04;2;2;
31330;PMS5003;34067;39.548;-76.088;2022-09-30T05:57:32;2;2;
31330;PMS5003;34067;39.548;-76.088;2022-09-30T06:00:00;3;3;
31330;PMS5003;34067;39.548;-76.088;2022-09-30T06:02:28;2;2;
31330;PMS5003;34067;39.548;-76.088;2022-09-30T06:04:56;1;1;
31330;PMS5003;34067;39.548;-76.088;2022-09-30T06:07:24;2;2;
31330;PMS5003;34067;39.548;-76.088;2022-09-30T06:09:52;2;1;
31330;PMS5003;34067;39.548;-76.088;2022-09-30T06:12:21;2;2;
31330;PMS5003;34067;39.548;-76.088;2022-09-30T06:14:49;2;2;
31330;PMS5003;34067;39.548;-76.088;2022-09-30T06:17:18;2;2;
31330;PMS5003;34067;39.548;-76.088;2022-09-30T06:19:46;2;2;
31330;PMS5003;34067;39.548;-76.088;2022-09-30T06:22:14;2;2;
31330;PMS5003;34067;39.548;-76.088;2022-09-30T06:24:43;2;2;
31330;PMS5003;34067;39.548;-76.088;2022-09-30T06:27:11;2;2;
31330;PMS5003;34067;39.548;-76.088;2022-09-30T06:29:39;2;2;
31330;PMS5003;34067;39.548;-76.088;2022-09-30T06:32:07;3;3;
31330;PMS5003;34067;39.548;-76.088;2022-09-30T06:34:35;3;3;
31330;PMS5003;34067;39.548;-76.088;2022-09-30T06:37:03;2;2;
31330;PMS5003;34067;39.548;-76.088;2022-09-30T06:39:31;3;3;
31330;PMS5003;34067;39.548;-76.088;2022-09-30T06:42:00;0;0;
31330;PMS5003;34067;39.548;-76.088;2022-09-30T06:44:27;2;2;
31330;PMS5003;34067;39.548;-76.088;2022-09-30T06:46:56;3;3;
31330;PMS5003;34067;39.548;-76.088;2022-09-30T06:49:24;2;2;
31330;PMS5003;34067;39.548;-76.088;2022-09-30T06:51:52;2;2;
31330;PMS5003;34067;39.548;-76.088;2022-09-30T06:54:20;3;3;
31330;PMS5003;34067;39.548;-76.088;2022-09-30T06:56:48;3;2;
31330;PMS5003;34067;39.548;-76.088;2022-09-30T06:59:16;2;2;
31330;PMS5003;34067;39.548;-76.088;2022-09-30T07:01:44;2;2;
31330;PMS5003;34067;39.548;-76.088;2022-09-30T07:04:12;2;2;
31330;PMS5003;34067;39.548;-76.088;2022-09-30T07:06:40;3;2;
31330;PMS5003;34067;39.548;-76.088;2022-09-30T07:09:09;2;2;
31330;PMS5003;34067;39.548;-76.088;2022-09-30T07:11:37;2;2;
31330;PMS5003;34067;39.548;-76.088;2022-09-30T07:14:06;1;1;
31330;PMS5003;34067;39.548;-76.088;2022-09-30T07:16:35;2;2;
31330;PMS5003;34067;39.548;-76.088;2022-09-30T07:19:03;4;3;
31330;PMS5003;34067;39.548;-76.088;2022-09-30T07:21:32;2;2;
31330;PMS5003;34067;39.548;-76.088;2022-09-30T07:24:00;2;2;
31330;PMS5003;34067;39.548;-76.088;2022-09-30T07:26:28;4;3;
31330;PMS5003;34067;39.548;-76.088;2022-09-30T07:28:57;1;1;
31330;PMS5003;34067;39.548;-76.088;2022-09-30T07:31:25;2;2;
31330;PMS5003;34067;39.548;-76.088;2022-09-30T07:33:54;3;3;
31330;PMS5003;34067;39.548;-76.088;2022-09-30T07:36:23;3;3;
31330;PMS5003;34067;39.548;-76.088;2022-09-30T07:38:52;3;3;
31330;PMS5003;34067;39.548;-76.088;2022-09-30T07:41:21;3;3;
31330;PMS5003;34067;39.548;-76.088;2022-09-30T07:43:51;1;1;
31330;PMS5003;34067;39.548;-76.088;2022-09-30T07:46:22;2;2;
31330;PMS5003;34067;39.548;-76.088;2022-09-30T07:48:52;2;2;
31330;PMS5003;34067;39.548;-76.088;2022-09-30T07:51:22;3;3;
31330;PMS5003;34067;39.548;-76.088;2022-09-30T07:53:52;2;2;
31330;PMS5003;34067;39.548;-76.088;2022-09-30T07:56:22;2;2;
31330;PMS5003;34067;39.548;-76.088;2022-09-30T07:58:53;1;1;
31330;PMS5003;34067;39.548;-76.088;2022-09-30T08:01:21;3;3;
31330;PMS5003;34067;39.548;-76.088;2022-09-30T08:03:51;1;1;
31330;PMS5003;34067;39.548;-76.088;2022-09-30T08:06:21;1;1;
31330;PMS5003;34067;39.548;-76.088;2022-09-30T08:08:50;2;2;
31330;PMS5003;34067;39.548;-76.088;2022-09-30T08:11:19;3;3;
31330;PMS5003;34067;39.548;-76.088;2022-09-30T08:13:49;2;2;
31330;PMS5003;34067;39.548;-76.088;2022-09-30T08:16:17;1;1;
31330;PMS5003;34067;39.548;-76.088;2022-09-30T08:18:45;2;2;
31330;PMS5003;34067;39.548;-76.088;2022-09-30T08:21:13;2;2;
31330;PMS5003;34067;39.548;-76.088;2022-09-30T08:23:42;2;2;
31330;PMS5003;34067;39.548;-76.088;2022-09-30T08:26:10;1;1;
31330;PMS5003;34067;39.548;-76.088;2022-09-30T08:28:39;3;3;
31330;PMS5003;34067;39.548;-76.088;2022-09-30T08:31:10;3;3;
31330;PMS5003;34067;39.548;-76.088;2022-09-30T08:33:39;2;2;
31330;PMS5003;34067;39.548;-76.088;2022-09-30T08:36:09;2;2;
31330;PMS5003;34067;39.548;-76.088;2022-09-30T08:38:38;3;2;
31330;PMS5003;34067;39.548;-76.088;2022-09-30T08:41:10;3;2;
31330;PMS5003;34067;39.548;-76.088;2022-09-30T08:43:53;2;2;
31330;PMS5003;34067;39.548;-76.088;2022-09-30T08:46:33;2;2;
31330;PMS5003;34067;39.548;-76.088;2022-09-30T08:49:15;2;2;
31330;PMS5003;34067;39.548;-76.088;2022-09-30T08:52:00;2;2;
31330;PMS5003;34067;39.548;-76.088;2022-09-30T08:54:31;2;2;
31330;PMS5003;34067;39.548;-76.088;2022-09-30T08:57:02;1;1;
31330;PMS5003;34067;39.548;-76.088;2022-09-30T08:59:31;1;1;
31330;PMS5003;34067;39.548;-76.088;2022-09-30T09:02:14;2;2;
31330;PMS5003;34067;39.548;-76.088;2022-09-30T09:04:48;3;2;
31330;PMS5003;34067;39.548;-76.088;2022-09-30T09:07:29;3;3;
31330;PMS5003;34067;39.548;-76.088;2022-09-30T09:10:10;2;2;
31330;PMS5003;34067;39.548;-76.088;2022-09-30T09:12:52;3;2;
31330;PMS5003;34067;39.548;-76.088;2022-09-30T09:15:29;4;3;
31330;PMS5003;34067;39.548;-76.088;2022-09-30T09:18:18;2;2;
31330;PMS5003;34067;39.548;-76.088;2022-09-30T09:21:01;2;2;
31330;PMS5003;34067;39.548;-76.088;2022-09-30T09:23:44;2;2;
31330;PMS5003;34067;39.548;-76.088;2022-09-30T09:26:14;2;2;
31330;PMS5003;34067;39.548;-76.088;2022-09-30T09:28:44;1;1;
31330;PMS5003;34067;39.548;-76.088;2022-09-30T09:31:25;3;2;
31330;PMS5003;34067;39.548;-76.088;2022-09-30T09:33:54;4;3;
31330;PMS5003;34067;39.548;-76.088;2022-09-30T09:36:31;0;0;
31330;PMS5003;34067;39.548;-76.088;2022-09-30T09:39:17;2;2;
31330;PMS5003;34067;39.548;-76.088;2022-09-30T09:42:16;4;3;
31330;PMS5003;34067;39.548;-76.088;2022-09-30T09:44:59;2;1;
31330;PMS5003;34067;39.548;-76.088;2022-09-30T09:47:30;2;2;
31330;PMS5003;34067;39.548;-76.088;2022-09-30T09:49:59;2;2;
31330;PMS5003;34067;39.548;-76.088;2022-09-30T09:52:48;2;2;
31330;PMS5003;34067;39.548;-76.088;2022-09-30T09:55:54;2;2;
31330;PMS5003;34067;39.548;-76.088;2022-09-30T09:58:24;3;3;
31330;PMS5003;34067;39.548;-76.088;2022-09-30T10:00:52;3;3;
31330;PMS5003;34067;39.548;-76.088;2022-09-30T10:03:35;3;3;
31330;PMS5003;34067;39.548;-76.088;2022-09-30T10:06:04;3;3;
31330;PMS5003;34067;39.548;-76.088;2022-09-30T10:08:34;3;3;
31330;PMS5003;34067;39.548;-76.088;2022-09-30T10:11:04;1;1;
31330;PMS5003;34067;39.548;-76.088;2022-09-30T10:13:44;3;3;
31330;PMS5003;34067;39.548;-76.088;2022-09-30T10:16:25;3;3;
31330;PMS5003;34067;39.548;-76.088;2022-09-30T10:18:57;2;2;
31330;PMS5003;34067;39.548;-76.088;2022-09-30T10:21:26;3;3;
31330;PMS5003;34067;39.548;-76.088;2022-09-30T10:23:56;3;3;
31330;PMS5003;34067;39.548;-76.088;2022-09-30T10:26:24;2;2;
31330;PMS5003;34067;39.548;-76.088;2022-09-30T10:28:54;3;3;
31330;PMS5003;34067;39.548;-76.088;2022-09-30T10:31:24;3;3;
31330;PMS5003;34067;39.548;-76.088;2022-09-30T10:33:55;2;2;
31330;PMS5003;34067;39.548;-76.088;2022-09-30T10:36:30;2;2;
31330;PMS5003;34067;39.548;-76.088;2022-09-30T10:39:00;4;3;
31330;PMS5003;34067;39.548;-76.088;2022-09-30T10:41:32;2;2;
31330;PMS5003;34067;39.548;-76.088;2022-09-30T10:44:02;3;3;
31330;PMS5003;34067;39.548;-76.088;2022-09-30T10:46:34;4;4;
31330;PMS5003;34067;39.548;-76.088;2022-09-30T10:49:07;4;4;
31330;PMS5003;34067;39.548;-76.088;2022-09-30T10:51:37;4;3;
31330;PMS5003;34067;39.548;-76.088;2022-09-30T10:54:06;4;4;
31330;PMS5003;34067;39.548;-76.088;2022-09-30T10:57:00;4;3;
31330;PMS5003;34067;39.548;-76.088;2022-09-30T10:59:31;3;3;
31330;PMS5003;34067;39.548;-76.088;2022-09-30T11:02:04;4;3;
31330;PMS5003;34067;39.548;-76.088;2022-09-30T11:04:47;3;3;
31330;PMS5003;34067;39.548;-76.088;2022-09-30T11:07:24;4;4;
31330;PMS5003;34067;39.548;-76.088;2022-09-30T11:09:59;3;3;
31330;PMS5003;34067;39.548;-76.088;2022-09-30T11:12:37;3;3;
31330;PMS5003;34067;39.548;-76.088;2022-09-30T11:15:11;3;3;
31330;PMS5003;34067;39.548;-76.088;2022-09-30T11:17:48;3;3;
31330;PMS5003;34067;39.548;-76.088;2022-09-30T11:20:21;3;3;
31330;PMS5003;34067;39.548;-76.088;2022-09-30T11:22:55;3;3;
31330;PMS5003;34067;39.548;-76.088;2022-09-30T11:25:33;2;2;
31330;PMS5003;34067;39.548;-76.088;2022-09-30T11:28:21;4;3;
31330;PMS5003;34067;39.548;-76.088;2022-09-30T11:31:05;4;4;
31330;PMS5003;34067;39.548;-76.088;2022-09-30T11:33:48;3;3;
31330;PMS5003;34067;39.548;-76.088;2022-09-30T11:36:31;4;3;
31330;PMS5003;34067;39.548;-76.088;2022-09-30T11:39:13;2;2;
31330;PMS5003;34067;39.548;-76.088;2022-09-30T11:42:00;2;2;
31330;PMS5003;34067;39.548;-76.088;2022-09-30T11:44:34;2;2;
31330;PMS5003;34067;39.548;-76.088;2022-09-30T11:47:10;2;2;
31330;PMS5003;34067;39.548;-76.088;2022-09-30T11:49:58;2;2;
31330;PMS5003;34067;39.548;-76.088;2022-09-30T11:52:36;2;2;
31330;PMS5003;34067;39.548;-76.088;2022-09-30T11:55:26;2;2;
31330;PMS5003;34067;39.548;-76.088;2022-09-30T11:58:08;3;2;
31330;PMS5003;34067;39.548;-76.088;2022-09-30T12:00:40;2;2;
31330;PMS5003;34067;39.548;-76.088;2022-09-30T12:03:14;2;2;
31330;PMS5003;34067;39.548;-76.088;2022-09-30T12:05:50;4;4;
31330;PMS5003;34067;39.548;-76.088;2022-09-30T12:08:23;3;3;
31330;PMS5003;34067;39.548;-76.088;2022-09-30T12:10:57;3;2;
31330;PMS5003;34067;39.548;-76.088;2022-09-30T12:13:31;2;2;
31330;PMS5003;34067;39.548;-76.088;2022-09-30T12:16:05;2;2;
31330;PMS5003;34067;39.548;-76.088;2022-09-30T12:18:39;2;2;
31330;PMS5003;34067;39.548;-76.088;2022-09-30T12:21:15;2;2;
31330;PMS5003;34067;39.548;-76.088;2022-09-30T12:23:49;1;1;
31330;PMS5003;34067;39.548;-76.088;2022-09-30T12:26:26;3;3;
31330;PMS5003;34067;39.548;-76.088;2022-09-30T12:28:54;3;3;
31330;PMS5003;34067;39.548;-76.088;2022-09-30T12:31:37;3;3;
31330;PMS5003;34067;39.548;-76.088;2022-09-30T12:34:23;1;1;
31330;PMS5003;34067;39.548;-76.088;2022-09-30T12:37:04;3;3;
31330;PMS5003;34067;39.548;-76.088;2022-09-30T12:39:52;2;2;
31330;PMS5003;34067;39.548;-76.088;2022-09-30T12:43:26;2;2;
31330;PMS5003;34067;39.548;-76.088;2022-09-30T12:46:14;3;3;
31330;PMS5003;34067;39.548;-76.088;2022-09-30T12:48:48;1;1;
31330;PMS5003;34067;39.548;-76.088;2022-09-30T12:51:21;4;3;
31330;PMS5003;34067;39.548;-76.088;2022-09-30T12:53:57;3;3;
31330;PMS5003;34067;39.548;-76.088;2022-09-30T12:56:28;4;4;
31330;PMS5003;34067;39.548;-76.088;2022-09-30T12:58:59;4;3;
31330;PMS5003;34067;39.548;-76.088;2022-09-30T13:01:28;1;1;
31330;PMS5003;34067;39.548;-76.088;2022-09-30T13:04:14;3;3;
31330;PMS5003;34067;39.548;-76.088;2022-09-30T13:07:27;2;2;
31330;PMS5003;34067;39.548;-76.088;2022-09-30T13:10:01;3;3;
31330;PMS5003;34067;39.548;-76.088;2022-09-30T13:13:11;4;3;
31330;PMS5003;34067;39.548;-76.088;2022-09-30T13:15:47;3;3;
31330;PMS5003;34067;39.548;-76.088;2022-09-30T13:19:22;2;2;
31330;PMS5003;34067;39.548;-76.088;2022-09-30T13:22:36;3;3;
31330;PMS5003;34067;39.548;-76.088;2022-09-30T13:25:10;4;2;
31330;PMS5003;34067;39.548;-76.088;2022-09-30T13:27:42;3;3;
31330;PMS5003;34067;39.548;-76.088;2022-09-30T13:30:43;3;3;
31330;PMS5003;34067;39.548;-76.088;2022-09-30T13:33:45;3;2;
31330;PMS5003;34067;39.548;-76.088;2022-09-30T13:36:30;4;3;
31330;PMS5003;34067;39.548;-76.088;2022-09-30T13:39:05;2;2;
31330;PMS5003;34067;39.548;-76.088;2022-09-30T13:41:43;4;4;
31330;PMS5003;34067;39.548;-76.088;2022-09-30T13:44:15;5;3;
31330;PMS5003;34067;39.548;-76.088;2022-09-30T13:46:53;4;3;
31330;PMS5003;34067;39.548;-76.088;2022-09-30T13:49:31;3;3;
31330;PMS5003;34067;39.548;-76.088;2022-09-30T13:52:06;3;3;
31330;PMS5003;34067;39.548;-76.088;2022-09-30T13:54:36;4;3;
31330;PMS5003;34067;39.548;-76.088;2022-09-30T13:57:09;2;2;
31330;PMS5003;34067;39.548;-76.088;2022-09-30T13:59:47;4;2;
31330;PMS5003;34067;39.548;-76.088;2022-09-30T14:02:31;3;2;
31330;PMS5003;34067;39.548;-76.088;2022-09-30T14:05:18;3;2;
31330;PMS5003;34067;39.548;-76.088;2022-09-30T14:08:05;1;1;
31330;PMS5003;34067;39.548;-76.088;2022-09-30T14:10:53;4;3;
31330;PMS5003;34067;39.548;-76.088;2022-09-30T14:13:35;2;2;
31330;PMS5003;34067;39.548;-76.088;2022-09-30T14:16:17;4;3;
31330;PMS5003;34067;39.548;-76.088;2022-09-30T14:20:13;2;2;
31330;PMS5003;34067;39.548;-76.088;2022-09-30T14:22:54;3;3;
31330;PMS5003;34067;39.548;-76.088;2022-09-30T14:25:22;4;4;
31330;PMS5003;34067;39.548;-76.088;2022-09-30T14:27:53;3;3;
31330;PMS5003;34067;39.548;-76.088;2022-09-30T14:30:30;4;4;
31330;PMS5003;34067;39.548;-76.088;2022-09-30T14:33:09;3;3;
31330;PMS5003;34067;39.548;-76.088;2022-09-30T14:35:44;3;2;
31330;PMS5003;34067;39.548;-76.088;2022-09-30T14:38:15;4;3;
31330;PMS5003;34067;39.548;-76.088;2022-09-30T14:40:49;4;3;
31330;PMS5003;34067;39.548;-76.088;2022-09-30T14:43:20;3;3;
31330;PMS5003;34067;39.548;-76.088;2022-09-30T14:45:50;4;4;
31330;PMS5003;34067;39.548;-76.088;2022-09-30T14:48:21;4;4;
31330;PMS5003;34067;39.548;-76.088;2022-09-30T14:50:55;5;4;
31330;PMS5003;34067;39.548;-76.088;2022-09-30T14:53:25;3;3;
31330;PMS5003;34067;39.548;-76.088;2022-09-30T14:55:56;5;4;
31330;PMS5003;34067;39.548;-76.088;2022-09-30T14:58:25;4;4;
31330;PMS5003;34067;39.548;-76.088;2022-09-30T15:01:03;3;3;
31330;PMS5003;34067;39.548;-76.088;2022-09-30T15:03:34;3;3;
31330;PMS5003;34067;39.548;-76.088;2022-09-30T15:06:05;4;4;
31330;PMS5003;34067;39.548;-76.088;2022-09-30T15:08:44;4;4;
31330;PMS5003;34067;39.548;-76.088;2022-09-30T15:11:16;5;5;
31330;PMS5003;34067;39.548;-76.088;2022-09-30T15:13:47;4;4;
31330;PMS5003;34067;39.548;-76.088;2022-09-30T15:16:21;3;3;
31330;PMS5003;34067;39.548;-76.088;2022-09-30T15:18:49;4;4;
31330;PMS5003;34067;39.548;-76.088;2022-09-30T15:21:17;6;6;
31330;PMS5003;34067;39.548;-76.088;2022-09-30T15:23:47;11;10;
31330;PMS5003;34067;39.548;-76.088;2022-09-30T15:26:17;6;6;
31330;PMS5003;34067;39.548;-76.088;2022-09-30T15:28:48;5;4;
31330;PMS5003;34067;39.548;-76.088;2022-09-30T15:31:18;3;3;
31330;PMS5003;34067;39.548;-76.088;2022-09-30T15:33:59;4;4;
31330;PMS5003;34067;39.548;-76.088;2022-09-30T15:36:33;3;3;
31330;PMS5003;34067;39.548;-76.088;2022-09-30T15:39:02;4;4;
31330;PMS5003;34067;39.548;-76.088;2022-09-30T15:41:37;4;4;
31330;PMS5003;34067;39.548;-76.088;2022-09-30T15:44:14;8;5;
31330;PMS5003;34067;39.548;-76.088;2022-09-30T15:46:59;5;5;
31330;PMS5003;34067;39.548;-76.088;2022-09-30T15:49:30;3;3;
31330;PMS5003;34067;39.548;-76.088;2022-09-30T15:52:18;3;3;
31330;PMS5003;34067;39.548;-76.088;2022-09-30T15:54:53;3;3;
31330;PMS5003;34067;39.548;-76.088;2022-09-30T15:57:54;2;2;
31330;PMS5003;34067;39.548;-76.088;2022-09-30T16:00:32;3;3;
31330;PMS5003;34067;39.548;-76.088;2022-09-30T16:03:06;3;2;
31330;PMS5003;34067;39.548;-76.088;2022-09-30T16:05:46;4;3;
31330;PMS5003;34067;39.548;-76.088;2022-09-30T16:08:17;4;4;
31330;PMS5003;34067;39.548;-76.088;2022-09-30T16:10:50;4;4;
31330;PMS5003;34067;39.548;-76.088;2022-09-30T16:13:21;5;5;
31330;PMS5003;34067;39.548;-76.088;2022-09-30T16:15:52;3;3;
31330;PMS5003;34067;39.548;-76.088;2022-09-30T16:18:23;4;4;
31330;PMS5003;34067;39.548;-76.088;2022-09-30T16:20:56;2;2;
31330;PMS5003;34067;39.548;-76.088;2022-09-30T16:23:27;4;4;
31330;PMS5003;34067;39.548;-76.088;2022-09-30T16:26:29;4;4;
31330;PMS5003;34067;39.548;-76.088;2022-09-30T16:28:59;2;2;
31330;PMS5003;34067;39.548;-76.088;2022-09-30T16:31:26;4;4;
31330;PMS5003;34067;39.548;-76.088;2022-09-30T16:33:54;2;2;
31330;PMS5003;34067;39.548;-76.088;2022-09-30T16:36:23;4;4;
31330;PMS5003;34067;39.548;-76.088;2022-09-30T16:38:51;4;4;
31330;PMS5003;34067;39.548;-76.088;2022-09-30T16:41:19;5;4;
31330;PMS5003;34067;39.548;-76.088;2022-09-30T16:43:47;2;2;
31330;PMS5003;34067;39.548;-76.088;2022-09-30T16:46:15;3;3;
31330;PMS5003;34067;39.548;-76.088;2022-09-30T16:48:43;4;4;
31330;PMS5003;34067;39.548;-76.088;2022-09-30T16:51:12;3;3;
31330;PMS5003;34067;39.548;-76.088;2022-09-30T16:53:41;3;3;
31330;PMS5003;34067;39.548;-76.088;2022-09-30T16:56:13;3;2;
31330;PMS5003;34067;39.548;-76.088;2022-09-30T16:58:43;4;4;
31330;PMS5003;34067;39.548;-76.088;2022-09-30T17:01:14;2;2;
31330;PMS5003;34067;39.548;-76.088;2022-09-30T17:03:44;5;5;
31330;PMS5003;34067;39.548;-76.088;2022-09-30T17:06:12;1;1;